createdAt,value
2023-02-09T00:02:51.105Z,17.23
2023-02-09T00:07:56.574Z,14.63
2023-02-09T00:13:20.267Z,18.10
2023-02-09T00:18:28.671Z,13.63
2023-02-09T00:23:36.636Z,20.47
2023-02-09T00:28:42.102Z,12.77
2023-02-09T00:33:47.715Z,19.50
2023-02-09T00:38:53.419Z,17.93
2023-02-09T00:43:59.006Z,16.60
2023-02-09T00:49:05.868Z,19.30
2023-02-09T00:54:11.461Z,19.43
2023-02-09T00:59:17.766Z,19.60
2023-02-09T01:04:23.321Z,19.90
2023-02-09T01:09:28.910Z,17.00
2023-02-09T01:14:34.441Z,19.53
2023-02-09T01:19:39.965Z,21.63
2023-02-09T01:24:45.630Z,19.90
2023-02-09T01:29:52.872Z,17.57
2023-02-09T01:34:58.341Z,21.33
2023-02-09T01:40:04.784Z,17.80
2023-02-09T01:45:32.985Z,16.40
2023-02-09T01:50:41.521Z,17.97
2023-02-09T01:55:52.554Z,15.03
2023-02-09T02:01:00.046Z,18.70
2023-02-09T02:06:08.595Z,18.20
2023-02-09T02:11:14.435Z,18.63
2023-02-09T02:16:29.196Z,15.57
2023-02-09T02:21:43.481Z,21.27
2023-02-09T02:27:08.198Z,19.80
2023-02-09T02:32:28.866Z,17.10
2023-02-09T02:37:52.608Z,25.47
2023-02-09T02:43:01.050Z,18.33
2023-02-09T02:48:31.157Z,18.97
2023-02-09T02:53:38.942Z,18.67
2023-02-09T02:58:47.264Z,19.90
2023-02-09T03:03:54.636Z,16.43
2023-02-09T03:09:00.684Z,21.80
2023-02-09T03:14:24.376Z,22.10
2023-02-09T03:19:44.219Z,18.47
2023-02-09T03:25:10.982Z,16.13
2023-02-09T03:30:18.048Z,18.27
2023-02-09T03:35:26.608Z,25.30
2023-02-09T03:40:32.151Z,17.87
2023-02-09T03:45:37.688Z,20.37
2023-02-09T03:50:43.681Z,16.30
2023-02-09T03:55:49.542Z,18.63
2023-02-09T04:00:55.058Z,20.53
2023-02-09T04:06:00.750Z,22.53
2023-02-09T04:11:06.384Z,18.50
2023-02-09T04:16:11.882Z,21.40
2023-02-09T04:21:17.463Z,21.50
2023-02-09T04:26:23.107Z,19.27
2023-02-09T04:31:28.804Z,20.43
2023-02-09T04:36:34.468Z,16.77
2023-02-09T04:41:40.032Z,17.63
2023-02-09T04:46:45.840Z,17.67
2023-02-09T04:51:51.375Z,15.63
2023-02-09T04:57:15.090Z,18.57
2023-02-09T05:02:20.628Z,20.13
2023-02-09T05:07:26.762Z,14.07
2023-02-09T05:12:33.318Z,17.40
2023-02-09T05:17:39.048Z,20.33
2023-02-09T05:22:44.651Z,20.50
2023-02-09T05:27:50.253Z,15.83
2023-02-09T05:32:56.321Z,18.63
2023-02-09T05:38:01.837Z,16.93
2023-02-09T05:43:07.437Z,17.70
2023-02-09T05:48:12.907Z,17.80
2023-02-09T05:53:18.769Z,13.70
2023-02-09T05:58:24.152Z,15.90
2023-02-09T06:03:29.828Z,15.20
2023-02-09T06:08:35.382Z,18.57
2023-02-09T06:13:40.898Z,17.10
2023-02-09T06:18:46.553Z,15.03
2023-02-09T06:23:52.445Z,16.23
2023-02-09T06:28:57.913Z,19.30
2023-02-09T06:34:05.413Z,15.83
2023-02-09T06:39:11.889Z,12.93
2023-02-09T06:44:17.275Z,15.50
2023-02-09T06:49:24.196Z,11.83
2023-02-09T06:54:30.257Z,11.47
2023-02-09T06:59:35.676Z,17.80
2023-02-09T07:04:41.114Z,14.50
2023-02-09T07:09:46.602Z,9.03
2023-02-09T07:14:52.076Z,16.93
2023-02-09T07:19:58.006Z,15.00
2023-02-09T07:25:03.485Z,15.00
2023-02-09T07:30:10.027Z,14.10
2023-02-09T07:35:15.481Z,9.80
2023-02-09T07:40:21.246Z,14.93
2023-02-09T07:45:26.787Z,15.60
2023-02-09T07:50:32.883Z,15.60
2023-02-09T07:55:39.789Z,11.77
2023-02-09T08:00:45.984Z,11.53
2023-02-09T08:06:03.581Z,11.33
2023-02-09T08:11:09.170Z,12.83
2023-02-09T08:16:17.664Z,13.23
2023-02-09T08:21:23.831Z,10.80
2023-02-09T08:26:30.357Z,12.07
2023-02-09T08:31:36.046Z,14.90
2023-02-09T08:36:41.924Z,12.70
2023-02-09T08:41:47.344Z,13.97
2023-02-09T08:46:53.046Z,12.77
2023-02-09T08:51:58.572Z,12.23
2023-02-09T08:57:04.235Z,8.30
2023-02-09T09:02:09.696Z,12.00
2023-02-09T09:07:15.531Z,18.27
2023-02-09T09:12:21.156Z,10.80
2023-02-09T09:17:26.677Z,12.67
2023-02-09T09:22:33.800Z,11.50
2023-02-09T09:27:39.330Z,12.07
2023-02-09T09:32:44.888Z,13.77
2023-02-09T09:37:50.483Z,13.10
2023-02-09T09:42:59.154Z,10.17
2023-02-09T09:48:05.321Z,10.40
2023-02-09T09:53:19.868Z,12.10
2023-02-09T09:58:25.764Z,9.80
2023-02-09T10:03:31.288Z,11.90
2023-02-09T10:08:39.813Z,12.97
2023-02-09T10:13:50.642Z,8.77
2023-02-09T10:19:01.999Z,10.53
2023-02-09T10:24:17.224Z,4.70
2023-02-09T10:29:27.199Z,8.37
2023-02-09T10:34:44.858Z,9.13
2023-02-09T10:39:56.178Z,11.10
2023-02-09T10:45:28.645Z,8.57
2023-02-09T10:50:34.208Z,10.33
2023-02-09T10:55:42.315Z,10.90
2023-02-09T11:01:02.568Z,9.03
2023-02-09T11:06:19.818Z,9.07
2023-02-09T11:11:31.286Z,10.77
2023-02-09T11:16:52.046Z,4.50
2023-02-09T11:22:06.975Z,7.77
2023-02-09T11:27:38.191Z,8.23
2023-02-09T11:32:49.237Z,6.83
2023-02-09T11:38:01.706Z,7.37
2023-02-09T11:43:10.267Z,8.43
2023-02-09T11:48:27.987Z,12.07
2023-02-09T11:53:45.592Z,8.63
2023-02-09T11:59:19.168Z,9.33
2023-02-09T12:04:53.698Z,9.07
2023-02-09T12:10:31.030Z,6.97
2023-02-09T12:15:49.368Z,9.47
2023-02-09T12:21:03.990Z,11.40
2023-02-09T12:26:24.068Z,9.77
2023-02-09T12:31:30.172Z,9.37
2023-02-09T12:36:36.495Z,11.80
2023-02-09T12:41:44.937Z,8.67
2023-02-09T12:46:53.622Z,9.93
2023-02-09T12:52:16.970Z,7.50
2023-02-09T12:57:28.655Z,10.30
2023-02-09T13:02:52.363Z,8.77
2023-02-09T13:08:19.102Z,11.03
2023-02-09T13:13:36.744Z,9.77
2023-02-09T13:19:03.457Z,9.50
2023-02-09T13:24:22.871Z,9.87
2023-02-09T13:29:31.330Z,9.13
2023-02-09T13:34:58.933Z,8.67
2023-02-09T13:40:23.798Z,9.37
2023-02-09T13:45:29.742Z,9.07
2023-02-09T13:50:35.185Z,11.33
2023-02-09T13:55:42.984Z,9.43
2023-02-09T14:00:58.114Z,7.30
2023-02-09T14:06:12.875Z,9.03
2023-02-09T14:11:41.531Z,7.97
2023-02-09T14:16:51.602Z,11.40
2023-02-09T14:21:46.972Z,8.30
2023-02-09T14:27:06.888Z,8.70
2023-02-09T14:32:47.930Z,9.67
2023-02-09T14:37:56.314Z,8.57
2023-02-09T14:43:04.781Z,8.80
2023-02-09T14:48:22.313Z,11.83
2023-02-09T14:53:30.756Z,8.20
2023-02-09T14:58:36.267Z,9.50
2023-02-09T15:03:41.831Z,9.50
2023-02-09T15:08:47.365Z,7.77
2023-02-09T15:14:02.953Z,8.10
2023-02-09T15:19:14.932Z,9.17
2023-02-09T15:24:20.672Z,8.13
2023-02-09T15:29:27.383Z,10.20
2023-02-09T15:34:32.912Z,7.67
2023-02-09T15:39:38.361Z,10.10
2023-02-09T15:45:01.550Z,7.73
2023-02-09T15:50:07.505Z,7.97
2023-02-09T15:55:18.673Z,9.20
2023-02-09T16:00:27.287Z,10.20
2023-02-09T16:05:32.857Z,9.57
2023-02-09T16:10:38.236Z,8.40
2023-02-09T16:15:44.008Z,7.77
2023-02-09T16:20:52.336Z,7.37
2023-02-09T16:26:01.617Z,8.43
2023-02-09T16:31:08.641Z,8.43
2023-02-09T16:36:16.823Z,9.37
2023-02-09T16:41:40.234Z,10.60
2023-02-09T16:46:47.971Z,9.87
2023-02-09T16:51:53.693Z,10.33
2023-02-09T16:56:59.259Z,10.53
2023-02-09T17:02:05.496Z,7.17
2023-02-09T17:07:12.462Z,8.67
2023-02-09T17:12:17.928Z,9.43
2023-02-09T17:17:23.859Z,9.60
2023-02-09T17:22:29.527Z,9.13
2023-02-09T17:27:35.048Z,11.67
2023-02-09T17:32:41.311Z,11.73
2023-02-09T17:37:47.678Z,7.10
2023-02-09T17:42:54.110Z,7.50
2023-02-09T17:48:01.007Z,9.70
2023-02-09T17:53:09.707Z,9.87
2023-02-09T17:58:15.780Z,9.93
2023-02-09T18:03:24.034Z,10.60
2023-02-09T18:08:31.183Z,8.50
2023-02-09T18:13:36.569Z,11.40
2023-02-09T18:18:43.202Z,11.57
2023-02-09T18:23:49.331Z,11.07
2023-02-09T18:28:54.774Z,6.97
2023-02-09T18:34:00.240Z,10.50
2023-02-09T18:39:05.976Z,11.80
2023-02-09T18:44:11.981Z,8.37
2023-02-09T18:49:17.527Z,10.90
2023-02-09T18:54:23.179Z,8.83
2023-02-09T18:59:33.379Z,11.73
2023-02-09T19:04:39.669Z,14.43
2023-02-09T19:09:46.006Z,9.20
2023-02-09T19:14:52.422Z,12.37
2023-02-09T19:20:03.134Z,10.37
2023-02-09T19:25:09.106Z,9.57
2023-02-09T19:30:17.579Z,8.57
2023-02-09T19:35:23.823Z,11.50
2023-02-09T19:40:31.238Z,9.07
2023-02-09T19:45:37.799Z,10.13
2023-02-09T19:50:43.635Z,8.27
2023-02-09T19:55:53.594Z,9.37
2023-02-09T20:00:59.165Z,7.97
2023-02-09T20:06:32.775Z,9.70
2023-02-09T20:11:38.510Z,11.33
2023-02-09T20:16:43.991Z,9.27
2023-02-09T20:21:49.741Z,10.80
2023-02-09T20:26:55.450Z,10.17
2023-02-09T20:32:01.809Z,8.63
2023-02-09T20:37:07.422Z,7.77
2023-02-09T20:42:31.344Z,7.53
2023-02-09T20:47:36.976Z,11.87
2023-02-09T20:52:45.816Z,9.33
2023-02-09T20:57:52.046Z,11.87
2023-02-09T21:02:57.657Z,10.23
2023-02-09T21:08:04.712Z,8.93
2023-02-09T21:13:11.895Z,7.30
2023-02-09T21:18:19.123Z,6.03
2023-02-09T21:23:24.824Z,10.87
2023-02-09T21:28:30.881Z,8.67
2023-02-09T21:33:37.374Z,9.30
2023-02-09T21:38:43.164Z,13.60
2023-02-09T21:43:49.292Z,9.63
2023-02-09T21:48:55.410Z,5.40
2023-02-09T21:54:00.855Z,8.10
2023-02-09T21:59:06.436Z,11.90
2023-02-09T22:04:12.815Z,4.60
2023-02-09T22:09:20.382Z,9.83
2023-02-09T22:14:25.968Z,11.60
2023-02-09T22:19:31.444Z,10.67
2023-02-09T22:24:44.608Z,8.13
2023-02-09T22:29:50.039Z,12.33
2023-02-09T22:34:55.504Z,11.20
2023-02-09T22:40:01.069Z,9.80
2023-02-09T22:45:08.240Z,12.00
2023-02-09T22:50:13.685Z,13.33
2023-02-09T22:55:19.145Z,11.23
2023-02-09T23:00:24.672Z,10.47
2023-02-09T23:05:30.164Z,10.40
2023-02-09T23:10:35.693Z,13.83
2023-02-09T23:15:41.257Z,7.83
2023-02-09T23:20:47.780Z,11.60
2023-02-09T23:25:53.863Z,12.50
2023-02-09T23:31:01.959Z,13.57
2023-02-09T23:36:09.449Z,12.60
2023-02-09T23:41:19.669Z,12.43
2023-02-09T23:46:28.899Z,13.33
2023-02-09T23:51:36.594Z,16.10
2023-02-09T23:56:42.183Z,13.23
